Terminal Aerodrome Forecast
Issued by NWS

Home | Current Version | Previous Version | Text Only | Print | Product List | Glossary On
Versions: 1 2 3 4 5 6 7 8 9 10 11 12 13 14
000
FTUS42 KGSP 171736
TAFAND
TAF
KAND 171736Z 1718/1818 22003KT P6SM FEW250
     FM180200 29002KT P6SM SCT250
     FM181200 04003KT P6SM BKN150=

USA.gov is the U.S. government's official web portal to all federal, state and local government web resources and services.